createdAt,value
2018-05-16T00:00:45.011Z,77.31
2018-05-16T00:01:45.245Z,78.36
2018-05-16T00:02:45.148Z,78.27
2018-05-16T00:03:45.223Z,79.22
2018-05-16T00:04:45.279Z,77.69
2018-05-16T00:05:45.340Z,78.64
2018-05-16T00:06:45.471Z,77.78
2018-05-16T00:07:45.488Z,77.50
2018-05-16T00:08:45.544Z,76.54
2018-05-16T00:09:45.671Z,76.15
2018-05-16T00:10:45.672Z,77.02
2018-05-16T00:11:45.768Z,77.11
2018-05-16T00:12:45.800Z,77.02
2018-05-16T00:13:45.864Z,77.11
2018-05-16T00:14:45.927Z,76.15
2018-05-16T00:15:45.999Z,76.92
2018-05-16T00:16:46.068Z,78.36
2018-05-16T00:17:46.144Z,78.36
2018-05-16T00:18:46.196Z,78.17
2018-05-16T00:19:46.268Z,78.55
2018-05-16T00:20:46.328Z,79.32
2018-05-16T00:21:46.396Z,79.22
2018-05-16T00:22:46.459Z,79.89
2018-05-16T00:23:46.520Z,79.51
2018-05-16T00:24:46.584Z,78.93
2018-05-16T00:25:46.652Z,79.60
2018-05-16T00:26:46.757Z,78.93
2018-05-16T00:27:46.788Z,77.88
2018-05-16T00:28:46.849Z,78.93
2018-05-16T00:29:46.913Z,79.51
2018-05-16T00:30:46.981Z,77.50
2018-05-16T00:31:47.053Z,78.45
2018-05-16T00:32:47.173Z,76.82
2018-05-16T00:33:47.177Z,75.87
2018-05-16T00:34:47.241Z,75.10
2018-05-16T00:35:47.357Z,75.96
2018-05-16T00:36:47.493Z,75.01
2018-05-16T00:37:47.437Z,75.20
2018-05-16T00:38:47.625Z,75.29
2018-05-16T00:39:47.572Z,75.87
2018-05-16T00:40:47.641Z,77.31
2018-05-16T00:41:47.709Z,75.77
2018-05-16T00:42:47.773Z,74.33
2018-05-16T00:43:47.835Z,76.25
2018-05-16T00:44:47.897Z,75.48
2018-05-16T00:45:47.961Z,75.77
2018-05-16T00:46:48.040Z,75.29
2018-05-16T00:47:48.101Z,74.66
2018-05-16T00:48:48.165Z,74.62
2018-05-16T00:49:48.225Z,73.99
2018-05-16T00:50:48.293Z,74.33
2018-05-16T00:51:48.365Z,73.51
2018-05-16T00:52:48.513Z,73.32
2018-05-16T00:53:48.510Z,73.41
2018-05-16T00:54:48.553Z,73.22
2018-05-16T00:55:48.626Z,73.03
2018-05-16T00:56:48.693Z,73.13
2018-05-16T00:57:48.757Z,73.13
2018-05-16T00:58:48.821Z,73.13
2018-05-16T00:59:48.890Z,72.84
2018-05-16T01:00:48.950Z,73.03
2018-05-16T01:01:49.017Z,74.08
2018-05-16T01:02:49.086Z,72.74
2018-05-16T01:03:49.145Z,71.59
2018-05-16T01:04:49.214Z,72.07
2018-05-16T01:05:49.278Z,72.94
2018-05-16T01:06:49.626Z,72.64
2018-05-16T01:07:51.074Z,72.78
2018-05-16T01:08:49.474Z,72.59
2018-05-16T01:09:49.534Z,72.20
2018-05-16T01:10:49.615Z,71.25
2018-05-16T01:11:49.695Z,71.53
2018-05-16T01:12:49.746Z,72.01
2018-05-16T01:13:49.807Z,72.01
2018-05-16T01:14:49.866Z,71.72
2018-05-16T01:15:49.945Z,71.25
2018-05-16T01:16:50.414Z,71.44
2018-05-16T01:17:50.082Z,71.44
2018-05-16T01:18:50.460Z,70.38
2018-05-16T01:19:50.198Z,70.67
2018-05-16T01:20:50.262Z,71.25
2018-05-16T01:21:50.342Z,70.57
2018-05-16T01:22:50.398Z,71.34
2018-05-16T01:23:50.458Z,70.38
2018-05-16T01:24:50.651Z,71.44
2018-05-16T01:25:50.591Z,71.15
2018-05-16T01:26:50.727Z,70.67
2018-05-16T01:27:50.742Z,71.15
2018-05-16T01:28:50.798Z,71.63
2018-05-16T01:29:50.899Z,71.25
2018-05-16T01:30:50.914Z,71.53
2018-05-16T01:31:50.994Z,72.01
2018-05-16T01:32:51.075Z,72.11
2018-05-16T01:33:51.123Z,72.01
2018-05-16T01:34:51.191Z,72.11
2018-05-16T01:35:51.395Z,72.20
2018-05-16T01:36:51.351Z,71.82
2018-05-16T01:37:51.383Z,72.59
2018-05-16T01:38:51.443Z,72.78
2018-05-16T01:39:51.530Z,72.20
2018-05-16T01:40:51.579Z,72.78
2018-05-16T01:41:51.767Z,72.97
2018-05-16T01:42:51.723Z,73.07
2018-05-16T01:43:51.772Z,72.88
2018-05-16T01:44:51.832Z,73.16
2018-05-16T01:45:51.895Z,72.20
2018-05-16T01:46:51.987Z,72.88
2018-05-16T01:47:52.047Z,72.78
2018-05-16T01:48:52.435Z,72.39
2018-05-16T01:49:52.235Z,72.78
2018-05-16T01:50:52.228Z,73.07
2018-05-16T01:51:52.299Z,73.35
2018-05-16T01:52:52.519Z,72.97
2018-05-16T01:53:52.952Z,73.65
2018-05-16T01:54:52.495Z,74.41
2018-05-16T01:55:52.596Z,77.38
2018-05-16T01:56:52.668Z,76.29
2018-05-16T01:57:52.708Z,77.53
2018-05-16T01:58:52.768Z,78.97
2018-05-16T01:59:52.822Z,78.20
2018-05-16T02:00:52.901Z,78.20
2018-05-16T02:01:52.952Z,78.59
2018-05-16T02:02:53.016Z,79.64
2018-05-16T02:03:53.096Z,78.30
2018-05-16T02:04:53.464Z,78.97
2018-05-16T02:05:53.249Z,80.22
2018-05-16T02:06:53.287Z,79.55
2018-05-16T02:07:53.517Z,80.08
2018-05-16T02:08:53.408Z,79.70
2018-05-16T02:09:53.664Z,80.37
2018-05-16T02:10:53.544Z,80.37
2018-05-16T02:11:53.604Z,81.04
2018-05-16T02:12:53.680Z,81.71
2018-05-16T02:13:53.741Z,82.29
2018-05-16T02:14:53.800Z,83.25
2018-05-16T02:15:53.864Z,83.05
2018-05-16T02:16:53.933Z,82.09
2018-05-16T02:17:54.041Z,82.48
2018-05-16T02:18:54.072Z,81.90
2018-05-16T02:19:54.128Z,82.24
2018-05-16T02:20:54.197Z,82.92
2018-05-16T02:21:54.261Z,83.30
2018-05-16T02:22:54.701Z,83.11
2018-05-16T02:23:54.401Z,84.26
2018-05-16T02:24:54.453Z,84.26
2018-05-16T02:25:54.521Z,84.35
2018-05-16T02:26:54.801Z,84.45
2018-05-16T02:27:54.661Z,85.21
2018-05-16T02:28:54.724Z,84.83
2018-05-16T02:29:54.781Z,85.60
2018-05-16T02:30:54.851Z,85.50
2018-05-16T02:31:54.980Z,85.88
2018-05-16T02:32:54.994Z,84.64
2018-05-16T02:33:55.050Z,85.69
2018-05-16T02:34:55.109Z,85.21
2018-05-16T02:35:55.230Z,86.17
2018-05-16T02:36:55.234Z,87.03
2018-05-16T02:37:55.578Z,87.32
2018-05-16T02:38:55.374Z,87.70
2018-05-16T02:39:55.430Z,87.61
2018-05-16T02:40:55.498Z,87.80
2018-05-16T02:41:55.562Z,87.70
2018-05-16T02:42:55.634Z,87.61
2018-05-16T02:43:55.778Z,87.70
2018-05-16T02:44:55.766Z,88.18
2018-05-16T02:45:55.827Z,89.33
2018-05-16T02:46:55.890Z,89.52
2018-05-16T02:47:56.075Z,89.43
2018-05-16T02:48:56.030Z,89.52
2018-05-16T02:49:56.084Z,88.66
2018-05-16T02:50:56.155Z,88.56
2018-05-16T02:51:56.295Z,90.09
2018-05-16T02:52:56.287Z,89.23
2018-05-16T02:53:56.470Z,88.85
2018-05-16T02:54:56.410Z,89.14
2018-05-16T02:55:56.478Z,89.23
2018-05-16T02:56:56.551Z,89.81
2018-05-16T02:57:56.606Z,90.67
2018-05-16T02:58:56.678Z,88.66
2018-05-16T02:59:56.749Z,90.86
2018-05-16T03:00:56.807Z,91.53
2018-05-16T03:01:56.867Z,91.01
2018-05-16T03:02:57.023Z,90.53
2018-05-16T03:03:57.007Z,92.06
2018-05-16T03:04:57.103Z,92.73
2018-05-16T03:05:57.130Z,92.83
2018-05-16T03:06:57.243Z,93.40
2018-05-16T03:07:57.258Z,93.12
2018-05-16T03:08:57.327Z,92.06
2018-05-16T03:09:57.550Z,90.82
2018-05-16T03:10:57.627Z,90.72
2018-05-16T03:11:57.523Z,90.53
2018-05-16T03:12:57.709Z,90.82
2018-05-16T03:13:57.651Z,90.44
2018-05-16T03:14:57.723Z,91.87
2018-05-16T03:15:57.789Z,92.16
2018-05-16T03:16:57.939Z,91.87
2018-05-16T03:17:57.982Z,93.02
2018-05-16T03:18:57.979Z,94.07
2018-05-16T03:19:58.052Z,93.40
2018-05-16T03:20:58.127Z,92.54
2018-05-16T03:21:58.175Z,92.44
2018-05-16T03:22:58.277Z,93.45
2018-05-16T03:23:58.304Z,94.02
2018-05-16T03:24:58.723Z,96.22
2018-05-16T03:25:58.487Z,95.56
2018-05-16T03:26:58.496Z,95.36
2018-05-16T03:27:58.564Z,94.98
2018-05-16T03:28:58.632Z,95.36
2018-05-16T03:29:58.700Z,95.17
2018-05-16T03:30:58.768Z,95.36
2018-05-16T03:31:58.830Z,95.94
2018-05-16T03:32:58.933Z,95.75
2018-05-16T03:33:58.956Z,96.03
2018-05-16T03:34:59.032Z,95.89
2018-05-16T03:35:59.091Z,95.89
2018-05-16T03:36:59.152Z,95.89
2018-05-16T03:37:59.219Z,96.37
2018-05-16T03:38:59.280Z,96.27
2018-05-16T03:39:59.692Z,96.94
2018-05-16T03:40:59.412Z,96.75
2018-05-16T03:41:59.480Z,97.13
2018-05-16T03:42:59.540Z,97.42
2018-05-16T03:43:59.608Z,98.09
2018-05-16T03:44:59.672Z,98.28
2018-05-16T03:46:00.007Z,98.23
2018-05-16T03:46:59.800Z,98.75
2018-05-16T03:47:59.933Z,98.38
2018-05-16T03:48:59.932Z,97.75
2018-05-16T03:49:59.996Z,97.37
2018-05-16T03:51:00.148Z,99.09
2018-05-16T03:52:00.180Z,99.48
2018-05-16T03:53:00.196Z,99.57
2018-05-16T03:54:00.281Z,99.48
2018-05-16T03:55:00.320Z,99.38
2018-05-16T03:56:00.392Z,99.85
2018-05-16T03:57:00.545Z,99.48
2018-05-16T03:58:00.517Z,99.76
2018-05-16T03:59:00.581Z,99.99
2018-05-16T04:00:00.645Z,99.99
2018-05-16T04:01:00.717Z,99.99
2018-05-16T04:02:00.788Z,99.99
2018-05-16T04:03:00.841Z,99.99
2018-05-16T04:04:00.965Z,99.99
2018-05-16T04:05:00.973Z,99.99
2018-05-16T04:06:01.161Z,99.99
2018-05-16T04:07:01.109Z,99.99
2018-05-16T04:08:01.165Z,99.99
2018-05-16T04:09:01.233Z,99.99
2018-05-16T04:10:01.297Z,99.99
2018-05-16T04:11:01.389Z,99.99
2018-05-16T04:12:01.426Z,99.99
2018-05-16T04:13:01.490Z,99.99
2018-05-16T04:14:01.553Z,99.99
2018-05-16T04:15:01.622Z,99.95
2018-05-16T04:16:01.694Z,99.99
2018-05-16T04:17:01.758Z,99.99
2018-05-16T04:18:01.882Z,99.99
2018-05-16T04:19:01.878Z,99.99
2018-05-16T04:20:01.949Z,99.99
2018-05-16T04:21:02.022Z,99.99
2018-05-16T04:22:02.081Z,99.99
2018-05-16T04:23:02.138Z,99.99
2018-05-16T04:24:02.205Z,99.99
2018-05-16T04:25:02.366Z,99.99
2018-05-16T04:26:02.338Z,99.99
2018-05-16T04:27:02.406Z,99.99
2018-05-16T04:28:02.462Z,99.99
2018-05-16T04:29:02.534Z,99.99
2018-05-16T04:30:02.596Z,99.99
2018-05-16T04:31:02.666Z,99.99
2018-05-16T04:32:02.731Z,99.99
2018-05-16T04:33:02.786Z,99.99
2018-05-16T04:34:02.851Z,99.99
2018-05-16T04:35:02.919Z,99.99
2018-05-16T04:36:03.044Z,99.99
2018-05-16T04:37:03.055Z,99.99
2018-05-16T04:38:03.111Z,99.99
2018-05-16T04:39:03.178Z,99.99
2018-05-16T04:40:03.243Z,99.99
2018-05-16T04:41:03.335Z,99.99
2018-05-16T04:42:03.511Z,99.38
2018-05-16T04:43:03.518Z,99.99
2018-05-16T04:44:03.503Z,99.99
2018-05-16T04:45:03.655Z,99.99
2018-05-16T04:46:03.638Z,99.99
2018-05-16T04:47:03.702Z,99.99
2018-05-16T04:48:03.763Z,99.99
2018-05-16T04:49:03.828Z,99.99
2018-05-16T04:50:03.891Z,99.57
2018-05-16T04:51:04.060Z,98.81
2018-05-16T04:52:04.027Z,98.43
2018-05-16T04:53:04.088Z,99.00
2018-05-16T04:54:04.208Z,98.81
2018-05-16T04:55:04.215Z,98.14
2018-05-16T04:56:04.443Z,97.56
2018-05-16T04:57:04.367Z,97.66
2018-05-16T04:58:04.435Z,97.08
2018-05-16T04:59:04.475Z,97.66
2018-05-16T05:00:04.545Z,97.56
2018-05-16T05:01:04.732Z,97.47
2018-05-16T05:02:04.679Z,97.18
2018-05-16T05:03:04.736Z,97.95
2018-05-16T05:04:04.803Z,97.18
2018-05-16T05:05:04.991Z,97.66
2018-05-16T05:06:04.939Z,97.56
2018-05-16T05:07:05.009Z,97.95
2018-05-16T05:08:05.140Z,97.37
2018-05-16T05:09:05.127Z,97.18
2018-05-16T05:10:05.191Z,97.37
2018-05-16T05:11:05.293Z,97.18
2018-05-16T05:12:05.323Z,97.08
2018-05-16T05:13:05.389Z,97.18
2018-05-16T05:14:05.498Z,96.99
2018-05-16T05:15:05.520Z,97.90
2018-05-16T05:16:05.640Z,96.94
2018-05-16T05:17:05.656Z,96.56
2018-05-16T05:18:05.712Z,96.84
2018-05-16T05:19:05.780Z,96.84
2018-05-16T05:20:05.845Z,97.52
2018-05-16T05:21:05.920Z,97.52
2018-05-16T05:22:06.124Z,97.33
2018-05-16T05:23:06.041Z,97.52
2018-05-16T05:24:06.163Z,96.75
2018-05-16T05:25:06.264Z,96.37
2018-05-16T05:26:06.793Z,95.46
2018-05-16T05:27:06.300Z,95.84
2018-05-16T05:28:06.368Z,95.94
2018-05-16T05:29:06.477Z,96.22
2018-05-16T05:30:06.517Z,95.46
2018-05-16T05:31:06.623Z,94.12
2018-05-16T05:32:06.693Z,92.78
2018-05-16T05:33:06.693Z,92.40
2018-05-16T05:34:06.785Z,91.82
2018-05-16T05:35:06.825Z,91.58
2018-05-16T05:36:06.898Z,92.63
2018-05-16T05:37:06.965Z,91.00
2018-05-16T05:38:07.029Z,90.62
2018-05-16T05:39:07.090Z,90.43
2018-05-16T05:40:07.157Z,90.43
2018-05-16T05:41:07.221Z,90.81
2018-05-16T05:42:07.285Z,90.33
2018-05-16T05:43:07.609Z,90.05
2018-05-16T05:44:07.413Z,90.43
2018-05-16T05:45:07.481Z,89.86
2018-05-16T05:46:07.565Z,90.14
2018-05-16T05:47:07.613Z,90.72
2018-05-16T05:48:07.685Z,90.91
2018-05-16T05:49:07.849Z,91.39
2018-05-16T05:50:07.901Z,88.42
2018-05-16T05:51:07.881Z,87.55
2018-05-16T05:52:07.941Z,87.08
2018-05-16T05:53:08.014Z,87.98
2018-05-16T05:54:08.661Z,87.12
2018-05-16T05:55:08.149Z,87.79
2018-05-16T05:56:08.205Z,87.02
2018-05-16T05:57:08.277Z,86.25
2018-05-16T05:58:08.342Z,87.41
2018-05-16T05:59:08.410Z,88.27
2018-05-16T06:00:08.565Z,88.27
2018-05-16T06:01:08.556Z,88.37
2018-05-16T06:02:08.597Z,87.41
2018-05-16T06:03:08.721Z,87.02
2018-05-16T06:04:08.754Z,86.93
2018-05-16T06:05:08.829Z,87.31
2018-05-16T06:06:08.862Z,87.98
2018-05-16T06:07:08.930Z,87.88
2018-05-16T06:08:09.065Z,88.08
2018-05-16T06:09:09.067Z,88.17
2018-05-16T06:10:09.126Z,87.70
2018-05-16T06:11:09.189Z,88.08
2018-05-16T06:12:09.258Z,87.50
2018-05-16T06:13:09.325Z,87.41
2018-05-16T06:14:09.418Z,88.37
2018-05-16T06:15:10.754Z,87.60
2018-05-16T06:16:09.522Z,86.93
2018-05-16T06:17:09.587Z,87.12
2018-05-16T06:18:09.654Z,86.54
2018-05-16T06:19:09.729Z,85.97
2018-05-16T06:20:09.790Z,85.49
2018-05-16T06:21:09.850Z,85.63
2018-05-16T06:22:09.915Z,86.40
2018-05-16T06:23:09.982Z,85.25
2018-05-16T06:24:10.054Z,85.44
2018-05-16T06:25:10.222Z,85.44
2018-05-16T06:26:10.179Z,84.42
2018-05-16T06:27:10.343Z,82.98
2018-05-16T06:28:10.314Z,81.53
2018-05-16T06:29:10.398Z,78.44
2018-05-16T06:30:10.447Z,74.86
2018-05-16T06:31:10.515Z,72.14
2018-05-16T06:32:10.583Z,69.71
2018-05-16T06:33:10.650Z,66.82
2018-05-16T06:34:10.727Z,65.24
2018-05-16T06:35:10.795Z,64.59
2018-05-16T06:36:10.861Z,61.99
2018-05-16T06:37:10.931Z,59.83
2018-05-16T06:38:10.999Z,59.73
2018-05-16T06:39:11.423Z,58.60
2018-05-16T06:40:11.148Z,58.37
2018-05-16T06:41:11.215Z,58.39
2018-05-16T06:42:11.287Z,55.56
2018-05-16T06:43:11.359Z,54.81
2018-05-16T06:44:11.563Z,56.16
2018-05-16T06:45:11.515Z,55.74
2018-05-16T06:46:11.583Z,54.41
2018-05-16T06:47:11.655Z,53.17
2018-05-16T06:48:11.731Z,52.72
2018-05-16T06:49:11.815Z,52.81
2018-05-16T06:50:11.887Z,50.89
2018-05-16T06:51:11.959Z,51.01
2018-05-16T06:52:12.036Z,48.20
2018-05-16T06:53:12.119Z,48.37
2018-05-16T06:54:13.879Z,48.15
2018-05-16T06:55:12.267Z,48.47
2018-05-16T06:56:12.359Z,49.12
2018-05-16T06:57:12.424Z,48.54
2018-05-16T06:58:12.496Z,48.44
2018-05-16T06:59:12.571Z,46.79
2018-05-16T07:00:12.852Z,48.05
2018-05-16T07:01:12.728Z,46.21
2018-05-16T07:02:12.808Z,45.17
2018-05-16T07:03:12.884Z,45.31
2018-05-16T07:04:13.041Z,47.93
2018-05-16T07:05:13.068Z,47.40
2018-05-16T07:06:13.128Z,45.48
2018-05-16T07:07:13.200Z,44.82
2018-05-16T07:08:13.280Z,45.04
2018-05-16T07:09:13.356Z,43.19
2018-05-16T07:10:13.444Z,42.04
2018-05-16T07:11:13.520Z,43.52
2018-05-16T07:12:13.832Z,40.13
2018-05-16T07:13:13.668Z,40.35
2018-05-16T07:14:13.749Z,39.08
2018-05-16T07:15:14.160Z,38.77
2018-05-16T07:16:13.928Z,38.70
2018-05-16T07:17:13.997Z,41.39
2018-05-16T07:18:14.073Z,42.18
2018-05-16T07:19:14.152Z,42.33
2018-05-16T07:20:14.372Z,43.93
2018-05-16T07:21:14.313Z,45.72
2018-05-16T07:22:14.397Z,43.68
2018-05-16T07:23:16.200Z,42.25
2018-05-16T07:24:17.209Z,42.74
2018-05-16T07:25:14.653Z,42.66
2018-05-16T07:26:14.833Z,41.71
2018-05-16T07:27:14.789Z,42.56
2018-05-16T07:28:14.873Z,42.05
2018-05-16T07:29:15.353Z,42.76
2018-05-16T07:30:15.190Z,43.07
2018-05-16T07:31:15.117Z,41.86
2018-05-16T07:32:15.189Z,42.13
2018-05-16T07:33:15.265Z,41.77
2018-05-16T07:34:15.345Z,42.41
2018-05-16T07:35:15.478Z,40.78
2018-05-16T07:36:15.545Z,41.38
2018-05-16T07:37:15.594Z,39.82
2018-05-16T07:38:15.669Z,39.92
2018-05-16T07:39:15.758Z,40.48
2018-05-16T07:40:15.837Z,40.58
2018-05-16T07:41:16.027Z,40.03
2018-05-16T07:42:15.989Z,38.83
2018-05-16T07:43:16.078Z,40.00
2018-05-16T07:44:17.002Z,40.64
2018-05-16T07:45:16.390Z,41.44
2018-05-16T07:46:16.329Z,40.88
2018-05-16T07:47:16.393Z,40.25
2018-05-16T07:48:16.474Z,38.32
2018-05-16T07:49:16.574Z,36.86
2018-05-16T07:50:18.222Z,36.08
2018-05-16T07:51:16.746Z,37.79
2018-05-16T07:52:16.794Z,37.43
2018-05-16T07:53:16.906Z,37.41
2018-05-16T07:54:16.955Z,37.97
2018-05-16T07:55:17.058Z,38.42
2018-05-16T07:56:17.118Z,38.64
2018-05-16T07:57:17.193Z,38.67
2018-05-16T07:58:17.370Z,37.63
2018-05-16T07:59:17.354Z,35.80
2018-05-16T08:00:17.458Z,37.07
2018-05-16T08:01:17.515Z,36.41
2018-05-16T08:02:17.594Z,35.80
2018-05-16T08:03:17.708Z,35.82
2018-05-16T08:04:18.317Z,35.35
2018-05-16T08:05:17.847Z,34.55
2018-05-16T08:06:17.930Z,35.33
2018-05-16T08:07:17.995Z,33.97
2018-05-16T08:08:18.079Z,36.00
2018-05-16T08:09:18.158Z,34.83
2018-05-16T08:10:18.263Z,35.90
2018-05-16T08:11:18.319Z,36.25
2018-05-16T08:12:19.295Z,37.15
2018-05-16T08:13:18.479Z,37.73
2018-05-16T08:14:18.561Z,37.70
2018-05-16T08:15:18.658Z,37.48
2018-05-16T08:16:18.735Z,37.60
2018-05-16T08:17:18.805Z,38.28
2018-05-16T08:18:18.881Z,37.95
2018-05-16T08:19:19.304Z,38.67
2018-05-16T08:20:20.732Z,41.33
2018-05-16T08:21:19.130Z,42.30
2018-05-16T08:22:19.207Z,44.03
2018-05-16T08:23:19.279Z,43.59
2018-05-16T08:24:19.388Z,43.08
2018-05-16T08:25:22.291Z,44.65
2018-05-16T08:26:22.340Z,43.86
2018-05-16T08:27:19.599Z,42.61
2018-05-16T08:28:29.612Z,42.78
2018-05-16T08:29:19.784Z,41.01
2018-05-16T08:30:19.837Z,41.22
2018-05-16T08:31:21.152Z,41.32
2018-05-16T08:32:20.005Z,41.13
2018-05-16T08:33:20.059Z,42.80
2018-05-16T08:34:21.305Z,42.99
2018-05-16T08:35:20.224Z,39.98
2018-05-16T08:36:20.288Z,41.10
2018-05-16T08:37:20.508Z,43.54
2018-05-16T08:38:20.456Z,44.76
2018-05-16T08:39:20.520Z,46.99
2018-05-16T08:40:20.740Z,47.38
2018-05-16T08:41:20.686Z,46.77
2018-05-16T08:42:20.812Z,48.22
2018-05-16T08:43:20.833Z,48.52
2018-05-16T08:44:20.911Z,47.43
2018-05-16T08:45:21.480Z,48.08
2018-05-16T08:46:21.057Z,48.44
2018-05-16T08:47:21.453Z,49.29
2018-05-16T08:48:21.201Z,50.45
2018-05-16T08:49:21.327Z,50.43
2018-05-16T08:50:21.357Z,50.62
2018-05-16T08:51:21.437Z,51.53
2018-05-16T08:52:21.526Z,53.85
2018-05-16T08:53:21.605Z,53.69
2018-05-16T08:54:21.661Z,53.47
2018-05-16T08:55:21.714Z,54.40
2018-05-16T08:56:22.405Z,53.95
2018-05-16T08:57:21.899Z,55.20
2018-05-16T08:58:21.941Z,54.60
2018-05-16T08:59:22.458Z,54.60
2018-05-16T09:00:22.102Z,55.08
2018-05-16T09:01:22.155Z,55.27
2018-05-16T09:02:22.265Z,54.21
2018-05-16T09:03:22.301Z,55.46
2018-05-16T09:04:22.370Z,54.31
2018-05-16T09:05:22.441Z,54.43
2018-05-16T09:06:24.014Z,52.89
2018-05-16T09:07:22.674Z,53.01
2018-05-16T09:08:22.710Z,53.01
2018-05-16T09:09:22.730Z,52.75
2018-05-16T09:10:23.165Z,52.07
2018-05-16T09:11:22.881Z,51.42
2018-05-16T09:12:22.962Z,51.32
2018-05-16T09:13:23.018Z,52.22
2018-05-16T09:14:23.321Z,51.44
2018-05-16T09:15:23.182Z,50.57
2018-05-16T09:16:23.226Z,50.14
2018-05-16T09:17:23.460Z,47.91
2018-05-16T09:18:23.874Z,48.57
2018-05-16T09:19:23.446Z,48.66
2018-05-16T09:20:23.505Z,49.77
2018-05-16T09:21:23.770Z,50.45
2018-05-16T09:22:23.666Z,50.76
2018-05-16T09:23:23.730Z,50.86
2018-05-16T09:24:23.798Z,49.90
2018-05-16T09:25:24.190Z,49.92
2018-05-16T09:26:23.936Z,49.41
2018-05-16T09:27:24.030Z,48.49
2018-05-16T09:28:24.094Z,44.68
2018-05-16T09:29:24.150Z,45.68
2018-05-16T09:30:24.387Z,44.09
2018-05-16T09:31:24.317Z,45.15
2018-05-16T09:32:24.382Z,46.12
2018-05-16T09:33:24.457Z,45.37
2018-05-16T09:34:24.755Z,44.47
2018-05-16T09:35:24.598Z,46.53
2018-05-16T09:36:24.665Z,44.68
2018-05-16T09:37:24.750Z,44.57
2018-05-16T09:38:24.810Z,46.31
2018-05-16T09:39:24.875Z,43.99
2018-05-16T09:40:24.972Z,45.29
2018-05-16T09:41:25.023Z,46.89
2018-05-16T09:42:25.207Z,45.88
2018-05-16T09:43:25.159Z,46.75
2018-05-16T09:44:25.239Z,46.87
2018-05-16T09:45:25.311Z,46.89
2018-05-16T09:46:25.379Z,45.54
2018-05-16T09:47:25.463Z,46.02
2018-05-16T09:48:25.539Z,45.47
2018-05-16T09:49:25.596Z,45.07
2018-05-16T09:50:25.667Z,44.09
2018-05-16T09:51:26.170Z,45.92
2018-05-16T09:52:25.983Z,44.93
2018-05-16T09:53:25.915Z,46.00
2018-05-16T09:54:26.152Z,46.08
2018-05-16T09:55:26.071Z,48.11
2018-05-16T09:56:26.100Z,50.24
2018-05-16T09:57:26.177Z,47.89
2018-05-16T09:58:26.284Z,47.89
2018-05-16T09:59:26.321Z,48.27
2018-05-16T10:00:26.388Z,49.54
2018-05-16T10:01:26.807Z,50.04
2018-05-16T10:02:26.543Z,48.49
2018-05-16T10:03:26.784Z,47.31
2018-05-16T10:04:26.680Z,48.18
2018-05-16T10:05:26.744Z,48.13
2018-05-16T10:06:27.052Z,48.44
2018-05-16T10:07:27.045Z,48.08
2018-05-16T10:08:26.964Z,48.37
2018-05-16T10:09:27.116Z,48.47
2018-05-16T10:10:27.100Z,49.15
2018-05-16T10:11:27.173Z,48.37
2018-05-16T10:12:27.544Z,48.47
2018-05-16T10:13:27.312Z,50.70
2018-05-16T10:14:27.538Z,49.82
2018-05-16T10:15:27.460Z,49.65
2018-05-16T10:16:27.533Z,48.57
2018-05-16T10:17:27.601Z,49.02
2018-05-16T10:18:27.669Z,49.49
2018-05-16T10:19:27.748Z,49.85
2018-05-16T10:20:27.821Z,49.17
2018-05-16T10:21:27.889Z,49.63
2018-05-16T10:22:27.953Z,50.31
2018-05-16T10:23:28.025Z,51.10
2018-05-16T10:24:28.201Z,51.39
2018-05-16T10:25:28.429Z,51.17
2018-05-16T10:26:28.237Z,50.96
2018-05-16T10:27:28.305Z,52.21
2018-05-16T10:28:28.377Z,52.19
2018-05-16T10:29:28.453Z,52.86
2018-05-16T10:30:28.529Z,53.41
2018-05-16T10:31:28.986Z,54.09
2018-05-16T10:32:28.658Z,53.51
2018-05-16T10:33:28.730Z,53.89
2018-05-16T10:34:28.852Z,54.09
2018-05-16T10:35:28.874Z,54.98
2018-05-16T10:36:28.937Z,53.83
2018-05-16T10:37:29.198Z,53.53
2018-05-16T10:38:29.078Z,53.34
2018-05-16T10:39:29.165Z,54.02
2018-05-16T10:40:29.218Z,53.34
2018-05-16T10:41:29.340Z,53.63
2018-05-16T10:42:29.354Z,53.51
2018-05-16T10:43:29.781Z,54.18
2018-05-16T10:44:29.508Z,54.18
2018-05-16T10:45:29.646Z,53.80
2018-05-16T10:46:29.633Z,53.99
2018-05-16T10:47:29.704Z,54.18
2018-05-16T10:48:29.770Z,53.80
2018-05-16T10:49:30.346Z,54.57
2018-05-16T10:50:29.939Z,53.39
2018-05-16T10:51:30.239Z,54.47
2018-05-16T10:52:30.183Z,54.09
2018-05-16T10:53:30.119Z,54.38
2018-05-16T10:54:30.187Z,54.09
2018-05-16T10:55:30.279Z,54.47
2018-05-16T10:56:30.323Z,54.38
2018-05-16T10:57:30.490Z,54.66
2018-05-16T10:58:30.462Z,55.05
2018-05-16T10:59:30.538Z,54.76
2018-05-16T11:00:30.611Z,54.25
2018-05-16T11:01:30.683Z,55.41
2018-05-16T11:02:30.743Z,56.21
2018-05-16T11:03:31.711Z,55.34
2018-05-16T11:04:30.915Z,56.49
2018-05-16T11:05:30.959Z,55.56
2018-05-16T11:06:31.056Z,54.21
2018-05-16T11:07:31.083Z,54.11
2018-05-16T11:08:31.155Z,54.33
2018-05-16T11:09:31.223Z,53.17
2018-05-16T11:10:31.357Z,53.20
2018-05-16T11:11:31.362Z,54.27
2018-05-16T11:12:31.432Z,53.20
2018-05-16T11:13:31.499Z,52.65
2018-05-16T11:14:31.695Z,51.75
2018-05-16T11:15:31.643Z,52.72
2018-05-16T11:16:31.716Z,52.53
2018-05-16T11:17:31.855Z,52.23
2018-05-16T11:18:31.844Z,52.69
2018-05-16T11:19:31.916Z,52.53
2018-05-16T11:20:31.992Z,52.81
2018-05-16T11:21:32.060Z,52.43
2018-05-16T11:22:32.123Z,52.45
2018-05-16T11:23:32.195Z,51.87
2018-05-16T11:24:32.267Z,51.59
2018-05-16T11:25:32.332Z,51.49
2018-05-16T11:26:32.508Z,51.01
2018-05-16T11:27:32.744Z,51.10
2018-05-16T11:28:32.640Z,51.87
2018-05-16T11:29:32.608Z,50.43
2018-05-16T11:30:32.680Z,51.10
2018-05-16T11:31:32.763Z,51.78
2018-05-16T11:32:33.028Z,51.10
2018-05-16T11:33:32.888Z,51.81
2018-05-16T11:34:32.956Z,51.13
2018-05-16T11:35:33.029Z,51.42
2018-05-16T11:36:33.164Z,50.91
2018-05-16T11:37:33.164Z,51.51
2018-05-16T11:38:33.236Z,51.90
2018-05-16T11:39:33.524Z,52.61
2018-05-16T11:40:33.377Z,51.64
2018-05-16T11:41:33.452Z,51.23
2018-05-16T11:42:33.520Z,51.64
2018-05-16T11:43:33.584Z,50.84
2018-05-16T11:44:33.652Z,50.65
2018-05-16T11:45:33.856Z,50.65
2018-05-16T11:46:33.867Z,50.74
2018-05-16T11:47:33.869Z,51.83
2018-05-16T11:48:33.932Z,50.67
2018-05-16T11:49:34.005Z,49.80
2018-05-16T11:50:34.073Z,49.99
2018-05-16T11:51:34.173Z,51.54
2018-05-16T11:52:34.213Z,50.60
2018-05-16T11:53:34.280Z,51.18
2018-05-16T11:54:34.545Z,49.82
2018-05-16T11:55:34.422Z,49.32
2018-05-16T11:56:34.721Z,49.32
2018-05-16T11:57:34.569Z,49.54
2018-05-16T11:58:34.629Z,48.74
2018-05-16T11:59:34.701Z,49.12
2018-05-16T12:00:34.775Z,50.21
2018-05-16T12:01:34.849Z,49.51
2018-05-16T12:02:34.917Z,50.38
2018-05-16T12:03:34.981Z,50.13
2018-05-16T12:04:35.053Z,49.55
2018-05-16T12:05:35.121Z,49.68
2018-05-16T12:06:35.301Z,49.95
2018-05-16T12:07:35.261Z,50.55
2018-05-16T12:08:35.329Z,51.23
2018-05-16T12:09:35.641Z,50.26
2018-05-16T12:10:35.521Z,49.77
2018-05-16T12:11:35.545Z,50.18
2018-05-16T12:12:35.617Z,48.71
2018-05-16T12:13:35.681Z,50.76
2018-05-16T12:14:35.852Z,50.07
2018-05-16T12:15:35.817Z,49.41
2018-05-16T12:16:35.897Z,49.22
2018-05-16T12:17:35.965Z,49.12
2018-05-16T12:18:36.032Z,48.42
2018-05-16T12:19:36.098Z,49.60
2018-05-16T12:20:36.170Z,49.32
2018-05-16T12:21:36.441Z,49.60
2018-05-16T12:22:36.382Z,48.54
2018-05-16T12:23:36.377Z,48.64
2018-05-16T12:24:36.451Z,49.10
2018-05-16T12:25:36.518Z,49.58
2018-05-16T12:26:36.601Z,49.49
2018-05-16T12:27:36.786Z,50.55
2018-05-16T12:28:36.730Z,51.61
2018-05-16T12:29:36.905Z,50.62
2018-05-16T12:30:37.046Z,50.81
2018-05-16T12:31:36.945Z,50.91
2018-05-16T12:32:37.099Z,51.10
2018-05-16T12:33:37.078Z,51.78
2018-05-16T12:34:37.174Z,51.87
2018-05-16T12:35:37.224Z,51.87
2018-05-16T12:36:37.394Z,52.62
2018-05-16T12:37:37.355Z,52.14
2018-05-16T12:38:37.422Z,52.33
2018-05-16T12:39:37.495Z,52.23
2018-05-16T12:40:37.562Z,52.98
2018-05-16T12:41:37.639Z,53.56
2018-05-16T12:42:37.707Z,54.11
2018-05-16T12:43:37.770Z,54.98
2018-05-16T12:44:37.847Z,56.43
2018-05-16T12:45:37.910Z,56.91
2018-05-16T12:46:38.078Z,57.94
2018-05-16T12:47:38.055Z,58.04
2018-05-16T12:48:38.120Z,56.88
2018-05-16T12:49:38.187Z,56.69
2018-05-16T12:50:38.254Z,58.01
2018-05-16T12:51:38.323Z,58.69
2018-05-16T12:52:38.415Z,61.58
2018-05-16T12:53:38.787Z,61.48